Aztec, New Mexico
Current Conditions -  °F | °C
As of 8:53 PM on Tuesday 21 Oct 2014 (Local Time) from KFMN Reporting Station
Clear Clear  
Wind Chill: 13°   Ceiling: Unl
Heat Index: 13°   Visibility: 10mi
Dew Point:   Wind: 7mph
Humidity: 62%   Direction: 100°E
Pressure: 30.04"   Gusts: NA
Location:  36.83°N, 107.99°W
Report Text: KFMN 220253Z 10006KT 10SM CLR 13/06 A3004 RMK AO2 SLP145 T01280056 53008
Loading
Personal Weather Stations






























Interactive Weather Map
Tropical Storm Tracking
New forecast layout! Learn more

10-Day Weather Forecast

Advertisements
Track Severe Weather on mobile